Time;durP1;ratioP1;P1;durP2;ratioP2;P2;SDS_P1;SDS_P2;PMS_P1;PMS_P2;Temp;Humidity;BMP_temperature;BMP_pressure;BME280_temperature;BME280_humidity;BME280_pressure;Samples;Min_cycle;Max_cycle;Signal;HPM_P1;HPM_P2
2022/07/17 00:01:40;;;;;;;1.67;0.50;;;;;;;16.84;52.92;99576.81;5012783;28;20046;-61
2022/07/17 00:04:24;;;;;;;0.73;0.43;;;;;;;16.84;52.91;99577.63;4997487;28;20057;-61
2022/07/17 00:07:09;;;;;;;0.45;0.30;;;;;;;16.73;52.45;99581.16;5011978;28;20045;-61
2022/07/17 00:09:54;;;;;;;1.88;0.60;;;;;;;16.66;53.36;99573.88;5004508;28;20088;-60
2022/07/17 00:12:39;;;;;;;1.52;0.50;;;;;;;16.67;53.15;99581.69;5025609;28;20049;-60
2022/07/17 00:15:24;;;;;;;0.88;0.50;;;;;;;16.69;52.74;99584.19;5023779;28;20466;-60
2022/07/17 00:18:08;;;;;;;1.02;0.60;;;;;;;16.54;53.68;99584.47;5015678;28;20046;-61
2022/07/17 00:20:55;;;;;;;1.98;0.60;;;;;;;16.35;53.87;99587.78;5012163;28;20045;-60
2022/07/17 00:23:39;;;;;;;1.92;0.50;;;;;;;16.02;55.08;99590.31;5003166;28;20046;-60
2022/07/17 00:26:24;;;;;;;1.35;0.43;;;;;;;15.85;55.55;99594.22;5011118;28;20030;-60
2022/07/17 00:29:09;;;;;;;1.20;0.52;;;;;;;15.91;55.98;99592.94;5024495;28;20480;-60
2022/07/17 00:31:53;;;;;;;0.77;0.47;;;;;;;15.89;56.26;99593.06;4998998;28;20057;-60
2022/07/17 00:34:38;;;;;;;1.60;0.50;;;;;;;15.92;56.21;99594.59;5011324;28;20426;-60
2022/07/17 00:37:23;;;;;;;1.25;0.60;;;;;;;15.80;56.87;99602.50;5025030;28;20640;-60
2022/07/17 00:40:10;;;;;;;1.58;0.50;;;;;;;15.61;57.33;99603.94;5010378;28;20443;-60
2022/07/17 00:42:54;;;;;;;1.20;0.82;;;;;;;15.59;57.50;99603.22;5010346;28;20165;-60
2022/07/17 00:45:39;;;;;;;2.97;0.60;;;;;;;15.57;58.29;99607.75;4999454;28;20486;-60
2022/07/17 00:48:23;;;;;;;0.82;0.50;;;;;;;15.58;58.60;99606.81;5011292;28;20066;-60
2022/07/17 00:51:09;;;;;;;2.40;0.60;;;;;;;15.52;58.37;99604.66;5011323;28;20044;-60
2022/07/17 00:53:57;;;;;;;1.08;0.60;;;;;;;15.58;58.56;99598.91;5011314;28;20041;-60
2022/07/17 00:56:45;;;;;;;1.17;0.63;;;;;;;15.43;59.36;99608.81;5011110;28;20042;-60
2022/07/17 00:59:33;;;;;;;2.38;0.80;;;;;;;15.23;60.55;99610.31;5011582;28;20033;-60
2022/07/17 01:02:17;;;;;;;1.25;0.63;;;;;;;15.35;60.65;99605.91;5010793;28;20070;-60
2022/07/17 01:05:03;;;;;;;3.17;0.60;;;;;;;15.41;60.41;99616.00;5011363;28;20072;-61
2022/07/17 01:07:49;;;;;;;1.75;0.80;;;;;;;15.26;60.71;99616.22;5011185;28;20156;-60
2022/07/17 01:10:34;;;;;;;0.85;0.60;;;;;;;15.11;60.75;99617.38;5010829;28;20183;-60
2022/07/17 01:13:19;;;;;;;2.05;0.77;;;;;;;15.09;60.85;99617.47;4998451;28;20124;-60
2022/07/17 01:16:05;;;;;;;1.38;0.75;;;;;;;15.09;61.07;99622.75;5011152;28;20054;-60
2022/07/17 01:18:50;;;;;;;2.03;0.77;;;;;;;15.06;61.93;99628.28;5010956;28;20064;-60
2022/07/17 01:21:43;;;;;;;0.60;0.50;;;;;;;14.97;62.86;99626.28;5000441;28;20041;-60
2022/07/17 01:24:27;;;;;;;1.05;0.68;;;;;;;15.04;62.30;99624.88;5009905;28;20048;-60
2022/07/17 01:27:12;;;;;;;2.10;1.00;;;;;;;14.99;62.64;99627.03;5009886;28;20073;-61
2022/07/17 01:29:57;;;;;;;1.67;0.88;;;;;;;14.95;62.88;99626.41;4997357;28;20038;-61
2022/07/17 01:32:42;;;;;;;2.60;0.80;;;;;;;15.08;62.50;99615.78;5010211;28;20499;-61
2022/07/17 01:35:27;;;;;;;1.63;0.70;;;;;;;15.13;62.42;99616.28;5024435;28;20435;-60
2022/07/17 01:38:12;;;;;;;6.82;1.00;;;;;;;15.13;62.22;99626.00;5009682;28;20038;-60
2022/07/17 01:40:57;;;;;;;2.03;0.70;;;;;;;15.10;62.00;99624.44;5011431;28;20045;-60
2022/07/17 01:43:42;;;;;;;2.65;0.63;;;;;;;15.20;62.16;99621.94;4999042;28;20044;-60
2022/07/17 01:46:26;;;;;;;0.93;0.50;;;;;;;15.15;62.08;99627.56;5024125;28;20097;-60
2022/07/17 01:49:11;;;;;;;2.20;0.60;;;;;;;15.19;61.70;99624.72;5024280;28;20053;-60
2022/07/17 01:51:59;;;;;;;4.00;0.70;;;;;;;15.12;61.73;99629.59;5008713;28;20379;-59
2022/07/17 01:54:44;;;;;;;3.15;0.73;;;;;;;15.05;61.68;99626.56;5011159;28;20034;-60
2022/07/17 01:57:29;;;;;;;1.92;0.70;;;;;;;15.15;61.52;99632.00;5010246;28;20038;-59
2022/07/17 02:00:17;;;;;;;2.28;0.68;;;;;;;15.27;61.15;99643.47;5011233;28;20080;-60
2022/07/17 02:03:01;;;;;;;1.20;0.70;;;;;;;15.23;60.84;99628.78;5010307;28;20053;-60
2022/07/17 02:05:46;;;;;;;1.77;0.55;;;;;;;15.22;60.62;99635.03;5023853;28;20041;-60
2022/07/17 02:08:31;;;;;;;1.35;0.60;;;;;;;14.96;61.35;99633.38;5012100;28;20049;-60
2022/07/17 02:11:17;;;;;;;1.42;0.82;;;;;;;14.96;61.26;99637.81;5027309;28;20034;-60
2022/07/17 02:14:01;;;;;;;1.83;0.63;;;;;;;14.91;61.63;99640.78;5001947;28;20061;-60
2022/07/17 02:16:47;;;;;;;1.38;0.60;;;;;;;14.98;61.25;99644.63;5013914;28;20076;-60
2022/07/17 02:19:34;;;;;;;4.40;0.80;;;;;;;15.06;61.18;99637.97;5014053;28;20161;-60
2022/07/17 02:22:19;;;;;;;1.60;0.70;;;;;;;15.06;61.25;99640.59;5014477;28;20034;-59
2022/07/17 02:25:05;;;;;;;1.88;0.98;;;;;;;14.95;61.40;99638.78;5014247;28;20088;-60
2022/07/17 02:27:51;;;;;;;2.15;0.80;;;;;;;14.89;61.51;99640.03;5014017;28;20046;-60
2022/07/17 02:30:35;;;;;;;1.45;0.70;;;;;;;14.89;61.89;99647.97;5014336;28;20062;-59
2022/07/17 02:33:20;;;;;;;1.60;0.60;;;;;;;14.92;60.87;99642.44;5027047;28;20041;-59
2022/07/17 02:36:06;;;;;;;1.33;0.50;;;;;;;14.71;61.95;99647.47;5014827;28;20120;-60
2022/07/17 02:38:51;;;;;;;0.95;0.60;;;;;;;14.70;62.41;99651.06;5013449;28;20044;-59
2022/07/17 02:41:36;;;;;;;2.38;0.65;;;;;;;14.61;62.72;99648.13;5013356;28;20105;-60
2022/07/17 02:44:21;;;;;;;0.85;0.55;;;;;;;14.58;62.96;99645.72;5013593;28;20058;-60
2022/07/17 02:47:05;;;;;;;1.48;0.60;;;;;;;14.54;62.68;99642.44;5027228;28;20437;-59
2022/07/17 02:49:51;;;;;;;1.38;0.60;;;;;;;14.48;62.68;99649.94;5014693;28;20054;-60
2022/07/17 02:52:36;;;;;;;0.98;0.63;;;;;;;14.40;63.12;99648.72;5012425;28;20050;-60
2022/07/17 02:55:22;;;;;;;1.80;0.80;;;;;;;14.59;62.38;99647.38;4999101;28;20042;-60
2022/07/17 02:58:07;;;;;;;3.40;0.68;;;;;;;14.59;62.26;99657.94;5000974;28;20111;-60
2022/07/17 03:00:51;;;;;;;1.63;0.60;;;;;;;14.50;62.56;99650.69;5012360;28;20093;-60
2022/07/17 03:03:36;;;;;;;1.38;0.60;;;;;;;14.52;62.28;99652.28;5026675;28;20045;-61
2022/07/17 03:06:21;;;;;;;2.05;0.52;;;;;;;14.54;62.06;99652.16;5013173;28;20053;-60
2022/07/17 03:09:06;;;;;;;1.67;0.70;;;;;;;14.57;62.01;99641.41;5012962;28;20049;-60
2022/07/17 03:11:50;;;;;;;0.77;0.50;;;;;;;14.77;61.96;99649.69;4999287;28;20066;-59
2022/07/17 03:14:35;;;;;;;0.55;0.43;;;;;;;14.81;60.72;99650.31;5013480;28;20050;-59
2022/07/17 03:17:20;;;;;;;1.25;0.50;;;;;;;14.81;60.62;99650.31;5013659;28;20383;-60
2022/07/17 03:20:05;;;;;;;1.98;0.65;;;;;;;15.01;59.50;99660.25;5025977;28;20401;-60
2022/07/17 03:22:50;;;;;;;1.30;0.50;;;;;;;15.14;60.15;99662.00;5012621;28;20045;-60
2022/07/17 03:25:34;;;;;;;1.23;0.40;;;;;;;15.09;59.79;99661.50;5013572;28;20041;-60
2022/07/17 03:28:19;;;;;;;0.93;0.50;;;;;;;15.06;59.37;99664.34;5001371;28;20489;-60
2022/07/17 03:31:04;;;;;;;0.93;0.47;;;;;;;14.92;59.98;99675.94;5011725;28;20046;-60
2022/07/17 03:33:48;;;;;;;2.53;0.57;;;;;;;14.99;59.84;99682.44;5012742;28;20086;-60
2022/07/17 03:36:33;;;;;;;1.20;0.70;;;;;;;14.97;59.77;99676.41;5012996;28;20388;-60
2022/07/17 03:39:18;;;;;;;0.95;0.50;;;;;;;14.85;60.03;99683.44;5012945;28;20069;-61
2022/07/17 03:42:02;;;;;;;2.05;0.50;;;;;;;14.95;60.41;99681.81;5013301;28;20053;-60
2022/07/17 03:44:48;;;;;;;1.52;0.63;;;;;;;15.17;59.65;99684.66;5012375;28;20061;-60
2022/07/17 03:47:32;;;;;;;2.05;0.60;;;;;;;15.30;59.45;99685.47;5012058;28;20125;-60
2022/07/17 03:50:17;;;;;;;1.42;0.60;;;;;;;15.39;59.55;99679.50;4999402;28;20092;-61
2022/07/17 03:53:02;;;;;;;0.70;0.40;;;;;;;15.47;59.41;99683.38;5012361;28;20573;-60
2022/07/17 03:55:47;;;;;;;1.45;0.68;;;;;;;15.60;58.93;99683.28;5013230;28;20056;-60
2022/07/17 03:58:32;;;;;;;1.67;0.43;;;;;;;15.75;59.25;99676.84;5025086;28;20033;-60
2022/07/17 04:01:17;;;;;;;2.00;0.50;;;;;;;15.82;58.10;99684.28;5011068;28;20493;-60
2022/07/17 04:04:01;;;;;;;2.25;0.50;;;;;;;15.85;58.22;99678.78;5013250;28;20092;-60
2022/07/17 04:06:46;;;;;;;2.53;0.60;;;;;;;15.85;58.67;99687.53;5011985;28;20391;-61
2022/07/17 04:09:31;;;;;;;1.27;0.45;;;;;;;15.72;58.42;99692.06;5011800;28;20045;-60
2022/07/17 04:12:16;;;;;;;1.65;0.50;;;;;;;15.81;58.23;99688.75;5012795;28;20042;-60
2022/07/17 04:15:01;;;;;;;3.38;0.60;;;;;;;15.85;58.55;99692.84;5024795;28;20064;-60
2022/07/17 04:17:46;;;;;;;0.70;0.45;;;;;;;15.85;58.67;99684.06;5012191;28;20079;-60
2022/07/17 04:20:30;;;;;;;1.75;0.40;;;;;;;16.18;58.01;99684.25;5011985;28;20042;-60
2022/07/17 04:23:15;;;;;;;1.38;0.50;;;;;;;16.25;57.64;99682.81;5013277;28;20062;-60
2022/07/17 04:26:00;;;;;;;1.30;0.57;;;;;;;16.11;57.44;99689.16;5010644;28;20042;-59
2022/07/17 04:28:46;;;;;;;0.65;0.40;;;;;;;16.12;57.60;99693.50;5012169;28;20406;-60
2022/07/17 04:31:30;;;;;;;2.17;0.60;;;;;;;16.12;58.05;99694.34;5011560;28;20144;-60
2022/07/17 04:34:15;;;;;;;1.17;0.45;;;;;;;15.98;57.68;99699.84;5011727;28;20061;-61
2022/07/17 04:37:02;;;;;;;1.70;0.43;;;;;;;16.16;57.17;99700.22;5011977;28;20050;-61
2022/07/17 04:39:47;;;;;;;0.82;0.40;;;;;;;16.21;57.19;99699.88;5011976;28;20030;-60
2022/07/17 04:42:31;;;;;;;1.50;0.50;;;;;;;16.25;57.14;99706.63;5024757;28;20045;-59
2022/07/17 04:45:16;;;;;;;1.48;0.60;;;;;;;16.36;57.42;99705.78;4999443;28;20066;-59
2022/07/17 04:48:02;;;;;;;1.13;0.55;;;;;;;16.40;57.23;99707.22;5011712;28;20437;-60
2022/07/17 04:50:46;;;;;;;0.88;0.40;;;;;;;16.45;58.02;99704.22;5000495;28;20037;-59
2022/07/17 04:53:31;;;;;;;1.55;0.60;;;;;;;16.54;58.15;99708.78;5022820;28;20038;-59
2022/07/17 04:56:16;;;;;;;1.80;0.57;;;;;;;16.49;57.76;99709.16;5012111;28;20042;-60
2022/07/17 04:59:01;;;;;;;0.85;0.47;;;;;;;16.52;57.91;99708.06;5001677;28;20048;-60
2022/07/17 05:01:46;;;;;;;2.15;0.50;;;;;;;16.66;58.36;99712.28;5012422;28;20390;-60
2022/07/17 05:04:31;;;;;;;1.25;0.47;;;;;;;16.61;58.19;99714.44;5010014;28;20406;-59
2022/07/17 05:07:17;;;;;;;2.38;0.60;;;;;;;16.96;57.04;99716.06;5011416;28;20049;-60
2022/07/17 05:10:05;;;;;;;1.17;0.52;;;;;;;17.26;55.58;99719.03;4983640;28;20040;-60
2022/07/17 05:12:50;;;;;;;2.50;0.63;;;;;;;17.58;55.21;99722.63;5000222;28;20505;-60
2022/07/17 05:15:34;;;;;;;0.93;0.50;;;;;;;17.67;54.41;99721.03;5025021;28;20474;-60
2022/07/17 05:18:19;;;;;;;1.23;0.40;;;;;;;17.83;53.72;99721.41;5011713;28;20509;-60
2022/07/17 05:21:04;;;;;;;0.63;0.40;;;;;;;18.03;54.46;99718.03;5024027;28;20455;-59
2022/07/17 05:23:48;;;;;;;1.25;0.50;;;;;;;18.03;53.68;99718.91;5011327;28;20108;-60
2022/07/17 05:26:33;;;;;;;1.48;0.70;;;;;;;17.89;53.69;99725.34;4999983;28;20061;-59
2022/07/17 05:29:20;;;;;;;0.88;0.50;;;;;;;18.18;53.47;99731.84;5024020;28;20038;-59
2022/07/17 05:32:05;;;;;;;1.33;0.30;;;;;;;18.30;52.54;99716.66;5024606;28;20115;-59
2022/07/17 05:34:50;;;;;;;2.35;0.43;;;;;;;18.16;52.03;99726.69;4995966;28;20046;-59
2022/07/17 05:37:35;;;;;;;1.63;0.52;;;;;;;18.29;53.13;99730.91;5021736;28;20038;-59
2022/07/17 05:40:19;;;;;;;2.63;0.70;;;;;;;18.38;51.41;99739.91;5024983;28;20037;-59
2022/07/17 05:43:04;;;;;;;1.27;0.50;;;;;;;18.10;52.83;99743.03;5012019;28;20060;-59
2022/07/17 05:45:48;;;;;;;1.10;0.50;;;;;;;18.42;52.07;99739.50;5002503;28;20044;-59
2022/07/17 05:48:33;;;;;;;0.82;0.43;;;;;;;18.52;51.53;99739.53;5014869;28;20490;-60
2022/07/17 05:51:18;;;;;;;2.47;0.50;;;;;;;18.21;53.45;99748.31;5015106;28;20037;-59
2022/07/17 05:54:03;;;;;;;1.52;0.50;;;;;;;18.70;54.52;99744.22;5014117;28;20456;-59
2022/07/17 05:56:48;;;;;;;1.13;0.40;;;;;;;18.97;52.58;99748.06;5014943;28;20491;-59
2022/07/17 05:59:32;;;;;;;1.42;0.50;;;;;;;19.11;50.33;99743.38;5013364;28;20113;-59
2022/07/17 06:02:17;;;;;;;2.20;0.50;;;;;;;18.93;52.12;99744.00;5027855;28;20364;-59
2022/07/17 06:05:07;;;;;;;1.05;0.30;;;;;;;19.09;52.56;99754.09;5001915;28;20080;-59
2022/07/17 06:07:54;;;;;;;0.98;0.50;;;;;;;19.33;50.50;99755.56;5014467;28;20540;-59
2022/07/17 06:10:40;;;;;;;1.52;0.43;;;;;;;19.22;48.78;99756.53;5014426;28;20044;-60
2022/07/17 06:13:25;;;;;;;1.00;0.50;;;;;;;19.20;51.62;99761.13;5014560;28;20042;-60
2022/07/17 06:16:09;;;;;;;1.70;0.50;;;;;;;19.51;51.63;99762.84;5013476;28;20049;-60
2022/07/17 06:18:55;;;;;;;1.02;0.40;;;;;;;19.44;51.31;99762.56;5026620;28;20080;-60
2022/07/17 06:21:40;;;;;;;2.22;0.50;;;;;;;19.92;50.11;99771.50;5015025;28;20044;-60
2022/07/17 06:24:24;;;;;;;1.52;0.50;;;;;;;20.06;50.21;99770.25;5014883;28;20040;-60
2022/07/17 06:27:09;;;;;;;2.72;0.63;;;;;;;20.19;49.11;99758.44;5013051;28;20042;-61
2022/07/17 06:29:54;;;;;;;1.38;0.47;;;;;;;20.39;49.51;99764.56;5000717;28;20041;-60
2022/07/17 06:32:39;;;;;;;1.08;0.73;;;;;;;20.29;48.96;99767.25;5013797;28;20050;-63
2022/07/17 06:35:24;;;;;;;1.17;0.70;;;;;;;20.41;47.93;99772.41;4999971;28;20038;-60
2022/07/17 06:38:10;;;;;;;1.73;0.47;;;;;;;21.29;45.78;99768.50;5012690;28;20117;-60
2022/07/17 06:40:55;;;;;;;2.85;0.60;;;;;;;21.49;44.22;99772.84;5014278;28;20042;-60
2022/07/17 06:43:40;;;;;;;1.20;0.50;;;;;;;21.40;45.20;99775.44;5014339;28;20087;-61
2022/07/17 06:46:25;;;;;;;1.48;0.52;;;;;;;21.12;43.74;99772.81;5013832;28;20486;-60
2022/07/17 06:49:10;;;;;;;0.93;0.57;;;;;;;20.99;43.05;99772.34;5014102;28;20049;-60
2022/07/17 06:51:55;;;;;;;0.93;0.38;;;;;;;21.40;42.66;99780.75;5013801;28;20033;-60
2022/07/17 06:54:39;;;;;;;1.02;0.60;;;;;;;21.57;42.11;99785.41;5012285;28;20513;-60
2022/07/17 06:57:24;;;;;;;1.80;0.50;;;;;;;21.63;40.31;99774.13;5011643;28;20398;-60
2022/07/17 07:00:09;;;;;;;1.65;0.50;;;;;;;21.65;40.45;99772.16;5012568;28;20050;-61
2022/07/17 07:02:54;;;;;;;1.08;0.50;;;;;;;21.17;41.48;99778.53;5010704;28;20139;-60
2022/07/17 07:05:38;;;;;;;2.53;0.50;;;;;;;21.47;40.33;99778.31;5014099;28;20034;-61
2022/07/17 07:08:23;;;;;;;3.65;0.50;;;;;;;20.74;42.43;99772.00;5000499;28;20042;-60
2022/07/17 07:11:08;;;;;;;4.75;0.57;;;;;;;20.86;42.64;99772.66;4993393;28;20062;-60
2022/07/17 07:13:53;;;;;;;2.22;0.45;;;;;;;22.43;40.56;99768.88;5013731;28;20046;-60
2022/07/17 07:16:37;;;;;;;1.80;0.60;;;;;;;22.54;38.53;99776.59;5029127;28;20048;-61
2022/07/17 07:19:22;;;;;;;1.13;0.50;;;;;;;23.10;41.00;99762.84;5013237;28;20100;-60
2022/07/17 07:22:07;;;;;;;3.20;0.60;;;;;;;23.45;40.06;99776.13;5013665;28;20537;-60
2022/07/17 07:24:52;;;;;;;2.45;0.95;;;;;;;23.67;40.08;99773.81;5012758;28;20108;-61
2022/07/17 07:27:37;;;;;;;2.70;0.60;;;;;;;24.05;39.62;99775.13;5011827;28;20037;-60
2022/07/17 07:30:21;;;;;;;1.33;0.60;;;;;;;24.01;38.76;99776.47;5012399;28;20054;-61
2022/07/17 07:33:06;;;;;;;1.23;0.45;;;;;;;24.79;38.15;99771.41;4997935;28;20069;-61
2022/07/17 07:35:51;;;;;;;0.80;0.40;;;;;;;24.18;38.15;99786.19;5013560;28;20402;-61
2022/07/17 07:38:36;;;;;;;1.23;0.63;;;;;;;24.45;38.19;99777.91;5000206;28;20038;-61
2022/07/17 07:41:21;;;;;;;2.05;0.70;;;;;;;24.60;36.93;99783.38;4998050;28;20422;-61
2022/07/17 07:44:05;;;;;;;1.80;0.50;;;;;;;24.40;37.00;99786.47;5012947;28;20038;-60
2022/07/17 07:46:50;;;;;;;1.75;0.50;;;;;;;24.63;38.65;99795.63;5025123;28;20042;-60
2022/07/17 07:49:34;;;;;;;3.40;0.40;;;;;;;24.61;37.80;99783.22;5011644;28;20053;-59
2022/07/17 07:52:20;;;;;;;0.73;0.20;;;;;;;22.68;28.55;99788.56;5025761;28;20596;-60
2022/07/17 07:55:05;;;;;;;0.88;0.20;;;;;;;23.71;30.63;99791.22;5012444;28;20038;-61
2022/07/17 07:58:01;;;;;;;0.70;0.30;;;;;;;24.77;29.80;99794.03;4998746;28;20046;-61
2022/07/17 08:00:46;;;;;;;1.38;0.30;;;;;;;23.39;29.08;99798.16;5011945;28;20406;-61
2022/07/17 08:03:31;;;;;;;0.88;0.30;;;;;;;24.80;30.11;99802.59;5013776;28;20038;-62
2022/07/17 08:06:15;;;;;;;3.45;0.57;;;;;;;24.93;29.69;99804.72;5009918;28;20042;-59
2022/07/17 08:09:00;;;;;;;2.58;0.47;;;;;;;23.95;29.49;99807.41;5012969;28;20042;-60
2022/07/17 08:11:48;;;;;;;1.80;0.73;;;;;;;23.62;27.79;99792.19;5011945;28;20165;-63
2022/07/17 08:14:36;;;;;;;2.72;0.40;;;;;;;23.93;27.48;99809.41;4984390;28;20045;-60
2022/07/17 08:17:23;;;;;;;3.25;0.40;;;;;;;24.08;29.89;99798.88;5012634;28;20495;-61
2022/07/17 08:20:09;;;;;;;2.03;0.52;;;;;;;24.19;28.09;99792.34;5012017;28;20050;-61
2022/07/17 08:22:53;;;;;;;0.95;0.30;;;;;;;24.02;29.72;99794.19;5012621;28;20076;-61
2022/07/17 08:25:38;;;;;;;3.33;0.30;;;;;;;24.29;28.95;99793.00;5013949;28;20045;-61
2022/07/17 08:28:23;;;;;;;1.05;0.40;;;;;;;24.68;29.76;99804.78;5011464;28;20535;-61
2022/07/17 08:31:08;;;;;;;1.13;0.57;;;;;;;25.44;27.96;99798.09;5011793;28;20054;-61
2022/07/17 08:33:53;;;;;;;0.40;0.20;;;;;;;25.46;29.21;99800.59;5012525;28;20042;-61
2022/07/17 08:36:38;;;;;;;3.63;0.63;;;;;;;26.89;26.96;99804.47;5024445;28;20038;-62
2022/07/17 08:39:22;;;;;;;1.48;0.60;;;;;;;26.33;26.89;99800.41;5024649;28;20044;-61
2022/07/17 08:42:08;;;;;;;4.22;0.50;;;;;;;26.49;26.96;99803.94;5011770;28;20372;-62
2022/07/17 08:44:58;;;;;;;1.50;0.47;;;;;;;26.31;29.54;99802.41;4972298;28;20142;-62
2022/07/17 08:47:45;;;;;;;0.52;0.20;;;;;;;27.12;27.91;99792.78;5012052;28;20699;-61
2022/07/17 08:50:35;;;;;;;2.90;0.25;;;;;;;26.89;27.55;99791.03;5011942;28;20475;-62
2022/07/17 08:53:20;;;;;;;1.38;0.43;;;;;;;25.59;29.74;99790.09;5024774;28;20041;-63
2022/07/17 08:56:05;;;;;;;2.38;0.45;;;;;;;26.39;28.77;99793.47;5017252;28;20045;-62
2022/07/17 08:58:50;;;;;;;0.50;0.30;;;;;;;26.85;27.06;99791.59;4998900;28;20045;-62
2022/07/17 09:01:35;;;;;;;0.68;0.40;;;;;;;27.49;28.27;99798.13;5010951;28;20042;-63
2022/07/17 09:04:20;;;;;;;1.58;0.40;;;;;;;27.32;27.19;99788.63;5016540;28;20042;-62
2022/07/17 09:07:05;;;;;;;1.70;0.50;;;;;;;27.11;27.92;99799.16;5011538;28;20042;-62
2022/07/17 09:09:52;;;;;;;4.20;0.70;;;;;;;26.36;29.48;99793.84;5011443;28;20050;-63
2022/07/17 09:12:36;;;;;;;3.17;0.65;;;;;;;27.04;26.94;99791.00;4990721;28;20053;-63
2022/07/17 09:15:21;;;;;;;3.33;0.52;;;;;;;26.62;27.38;99792.53;5007773;28;20053;-62
2022/07/17 09:18:06;;;;;;;3.75;0.40;;;;;;;27.02;28.51;99793.06;5010171;28;20508;-63
2022/07/17 09:20:57;;;;;;;3.53;0.77;;;;;;;28.30;26.83;99784.50;5009995;28;20451;-62
2022/07/17 09:23:42;;;;;;;1.05;0.40;;;;;;;28.93;26.49;99787.31;5011032;28;20414;-63
2022/07/17 09:26:28;;;;;;;2.20;0.63;;;;;;;28.07;27.83;99788.28;5009876;28;20034;-62
2022/07/17 09:29:12;;;;;;;0.77;0.28;;;;;;;28.42;27.18;99784.81;5010979;28;20463;-62
2022/07/17 09:31:57;;;;;;;1.90;0.30;;;;;;;28.55;27.83;99786.72;5010141;28;20467;-62
2022/07/17 09:34:47;;;;;;;1.20;0.30;;;;;;;28.16;27.75;99773.66;5009955;28;20092;-62
2022/07/17 09:37:34;;;;;;;1.15;0.45;;;;;;;27.56;26.70;99784.72;5015476;28;20042;-62
2022/07/17 09:43:42;;;;;;;3.90;0.50;;;;;;;26.91;27.73;99786.28;5010528;28;20058;-62
2022/07/17 09:46:31;;;;;;;2.13;0.40;;;;;;;27.69;27.65;99773.28;5023269;28;20119;-63
2022/07/17 09:49:17;;;;;;;2.35;0.35;;;;;;;29.19;26.06;99766.88;5011635;28;20053;-62
2022/07/17 09:52:02;;;;;;;1.05;0.40;;;;;;;27.98;26.65;99766.06;5010612;28;20038;-62
2022/07/17 09:54:48;;;;;;;2.00;0.50;;;;;;;27.40;27.61;99761.63;5011426;28;20038;-62
2022/07/17 09:57:34;;;;;;;3.35;0.38;;;;;;;29.14;26.97;99760.25;4999347;28;20054;-62
2022/07/17 10:00:22;;;;;;;2.67;0.43;;;;;;;30.05;24.33;99759.03;5011269;28;20370;-63
2022/07/17 10:03:08;;;;;;;4.65;0.45;;;;;;;30.32;28.09;99760.91;5010549;28;20069;-62
2022/07/17 10:05:53;;;;;;;3.92;0.50;;;;;;;29.74;25.15;99758.66;5009478;28;20073;-62
2022/07/17 10:08:38;;;;;;;0.70;0.40;;;;;;;29.55;25.58;99754.06;5012334;28;20045;-62
2022/07/17 10:11:27;;;;;;;2.17;0.30;;;;;;;28.83;26.26;99756.19;5010356;28;20410;-62
2022/07/17 10:14:14;;;;;;;2.38;0.50;;;;;;;30.26;26.02;99748.25;5009754;28;20099;-62
2022/07/17 10:17:09;;;;;;;0.65;0.30;;;;;;;29.89;23.67;99749.50;4996593;28;20390;-62
2022/07/17 10:19:55;;;;;;;1.38;0.50;;;;;;;28.59;25.73;99736.81;4997793;28;20046;-63
2022/07/17 10:22:43;;;;;;;0.93;0.40;;;;;;;28.95;27.22;99742.13;5009130;28;20419;-62
2022/07/17 10:25:28;;;;;;;1.52;0.40;;;;;;;29.65;25.09;99737.50;4996323;28;20042;-63
2022/07/17 10:28:16;;;;;;;2.58;0.60;;;;;;;29.55;24.24;99741.41;5010184;28;20078;-63
2022/07/17 10:31:01;;;;;;;0.73;0.30;;;;;;;30.21;27.50;99740.78;5026339;28;20054;-62
2022/07/17 10:34:00;;;;;;;0.80;0.38;;;;;;;31.40;23.47;99732.53;5014271;28;20061;-63
2022/07/17 10:36:46;;;;;;;1.17;0.30;;;;;;;29.93;26.46;99737.28;4999887;28;20041;-63
2022/07/17 10:39:31;;;;;;;2.35;0.40;;;;;;;31.32;24.85;99729.00;5013997;28;20100;-64
2022/07/17 10:42:40;;;;;;;1.27;0.68;;;;;;;31.73;23.52;99738.72;5013397;28;20045;-64
2022/07/17 10:45:42;;;;;;;1.13;0.40;;;;;;;31.36;22.08;99726.69;5001700;28;20125;-62
2022/07/17 10:48:27;;;;;;;1.65;0.52;;;;;;;31.40;22.92;99727.13;5013786;28;20084;-63
2022/07/17 10:51:12;;;;;;;1.70;0.32;;;;;;;29.52;23.56;99722.94;5013705;28;20053;-63
2022/07/17 10:53:58;;;;;;;1.15;0.40;;;;;;;29.90;25.01;99717.97;4999485;28;20054;-63
2022/07/17 10:56:46;;;;;;;1.23;0.30;;;;;;;30.99;25.81;99716.56;5013355;28;20053;-63
2022/07/17 10:59:32;;;;;;;1.02;0.30;;;;;;;32.18;25.01;99713.28;4999093;28;20373;-63
2022/07/17 11:02:17;;;;;;;1.02;0.30;;;;;;;31.95;21.53;99720.19;5013997;28;20066;-63
2022/07/17 11:05:13;;;;;;;1.23;0.40;;;;;;;31.88;21.58;99716.69;5014107;28;20042;-63
2022/07/17 11:07:59;;;;;;;1.30;0.28;;;;;;;31.16;23.38;99716.03;5025989;28;20042;-63
2022/07/17 11:10:46;;;;;;;3.72;0.40;;;;;;;30.09;23.01;99710.84;5021482;28;20061;-63
2022/07/17 11:13:31;;;;;;;1.98;0.47;;;;;;;29.30;24.68;99711.53;5014063;28;20034;-64
2022/07/17 11:16:29;;;;;;;0.90;0.60;;;;;;;29.20;25.65;99710.03;5012048;28;20492;-62
2022/07/17 11:19:43;;;;;;;0.90;0.38;;;;;;;31.32;22.85;99698.44;5013057;28;20596;-63
2022/07/17 11:22:46;;;;;;;1.02;0.40;;;;;;;31.27;22.63;99696.38;5011818;28;20475;-64
2022/07/17 11:25:30;;;;;;;1.85;0.40;;;;;;;30.83;22.44;99702.50;4999767;28;20061;-64
2022/07/17 11:28:15;;;;;;;1.60;0.35;;;;;;;31.66;22.63;99698.19;5001393;28;20045;-64
2022/07/17 11:31:02;;;;;;;1.17;0.30;;;;;;;33.13;23.65;99688.50;5025383;28;20421;-64
2022/07/17 11:33:53;;;;;;;0.98;0.40;;;;;;;33.09;19.73;99686.50;5013289;28;20128;-62
2022/07/17 11:36:42;;;;;;;2.60;0.40;;;;;;;31.85;21.04;99682.78;5011617;28;20038;-63
2022/07/17 11:39:37;;;;;;;2.67;0.30;;;;;;;33.20;20.36;99680.25;5012669;28;20042;-64
2022/07/17 11:42:23;;;;;;;2.55;0.20;;;;;;;32.63;21.23;99682.31;5025967;28;20042;-62
2022/07/17 11:45:08;;;;;;;0.75;0.22;;;;;;;32.48;18.92;99676.47;5012623;28;20062;-63
2022/07/17 11:48:01;;;;;;;0.77;0.20;;;;;;;32.60;22.06;99688.22;4998152;28;20478;-63
2022/07/17 11:50:54;;;;;;;0.70;0.30;;;;;;;33.33;18.79;99667.56;5012627;28;20040;-63
2022/07/17 11:53:40;;;;;;;0.80;0.25;;;;;;;31.66;19.41;99674.66;5012848;28;20038;-63
2022/07/17 11:56:24;;;;;;;3.67;0.50;;;;;;;30.13;22.61;99685.06;5012348;28;20054;-62
2022/07/17 11:59:10;;;;;;;2.47;0.30;;;;;;;30.40;22.08;99668.81;5025604;28;20042;-62
2022/07/17 12:01:56;;;;;;;1.55;0.40;;;;;;;29.71;20.26;99663.78;5011199;28;20113;-62
2022/07/17 12:04:52;;;;;;;2.00;0.30;;;;;;;32.42;23.36;99670.91;5012501;28;20064;-64
2022/07/17 12:07:45;;;;;;;0.57;0.20;;;;;;;30.86;20.73;99663.41;5012333;28;20116;-62
2022/07/17 12:10:32;;;;;;;2.38;0.35;;;;;;;31.42;22.71;99668.22;5002717;28;20041;-63
2022/07/17 12:13:19;;;;;;;1.52;0.30;;;;;;;31.49;21.15;99668.13;5012093;28;20049;-63
2022/07/17 12:16:18;;;;;;;0.68;0.30;;;;;;;32.41;22.02;99661.13;4997298;28;20049;-63
2022/07/17 12:19:15;;;;;;;0.60;0.10;;;;;;;31.32;19.55;99658.66;5020280;28;20108;-63
2022/07/17 12:22:01;;;;;;;1.40;0.28;;;;;;;32.61;19.13;99657.31;5012653;28;20128;-63
2022/07/17 12:24:46;;;;;;;1.63;0.30;;;;;;;32.38;19.16;99647.19;4998923;28;20034;-64
2022/07/17 12:27:31;;;;;;;1.23;0.30;;;;;;;32.42;19.36;99649.22;5011509;28;20088;-64
2022/07/17 12:30:16;;;;;;;2.40;0.47;;;;;;;30.39;20.62;99666.31;5010713;28;20050;-64
2022/07/17 12:33:00;;;;;;;0.88;0.20;;;;;;;31.82;19.54;99665.13;5012157;28;20045;-64
2022/07/17 12:35:45;;;;;;;0.50;0.25;;;;;;;32.55;17.99;99667.22;5011415;28;20062;-63
2022/07/17 12:38:30;;;;;;;2.08;0.30;;;;;;;33.04;18.41;99657.31;4997958;28;20096;-64
2022/07/17 12:41:15;;;;;;;0.70;0.20;;;;;;;33.16;18.34;99649.25;5011463;28;20038;-64
2022/07/17 12:44:00;;;;;;;1.88;0.47;;;;;;;32.18;18.80;99650.97;5012490;28;20042;-63
2022/07/17 12:46:45;;;;;;;1.67;0.45;;;;;;;30.58;21.54;99651.03;5016004;28;20048;-64
2022/07/17 12:49:30;;;;;;;1.70;0.30;;;;;;;29.66;21.48;99648.22;5018835;28;20072;-64
2022/07/17 12:52:14;;;;;;;1.98;0.40;;;;;;;30.20;23.34;99639.16;5007348;28;20167;-63
2022/07/17 12:54:59;;;;;;;1.70;0.40;;;;;;;31.17;19.77;99636.53;5016780;28;20053;-64
2022/07/17 12:57:44;;;;;;;0.63;0.30;;;;;;;32.90;19.65;99632.31;5020655;28;20143;-64
2022/07/17 13:00:29;;;;;;;0.70;0.43;;;;;;;32.85;17.02;99638.44;5019533;28;20045;-63
2022/07/17 13:03:13;;;;;;;0.60;0.30;;;;;;;33.00;18.33;99631.72;5023231;28;20474;-63
2022/07/17 13:06:00;;;;;;;0.85;0.20;;;;;;;33.58;18.59;99632.00;5010849;28;20111;-62